createdAt,value
2022-08-05T00:00:16.378Z,76.47
2022-08-05T00:02:51.284Z,76.78
2022-08-05T00:06:01.699Z,77.19
2022-08-05T00:08:19.787Z,77.76
2022-08-05T00:10:54.245Z,77.63
2022-08-05T00:13:21.103Z,78.25
2022-08-05T00:16:06.557Z,76.38
2022-08-05T00:18:36.442Z,77.69
2022-08-05T00:21:06.452Z,77.90
2022-08-05T00:23:45.919Z,77.78
2022-08-05T00:26:15.240Z,78.95
2022-08-05T00:28:43.744Z,77.55
2022-08-05T00:31:13.116Z,76.83
2022-08-05T00:34:54.423Z,77.28
2022-08-05T00:37:10.379Z,78.96
2022-08-05T00:39:14.206Z,78.38
2022-08-05T00:41:55.083Z,77.86
2022-08-05T00:44:30.644Z,77.95
2022-08-05T00:47:02.165Z,76.75
2022-08-05T00:49:32.356Z,77.76
2022-08-05T00:52:00.512Z,78.21
2022-08-05T00:54:28.081Z,78.81
2022-08-05T00:56:57.018Z,78.08
2022-08-05T00:59:24.009Z,77.49
2022-08-05T01:01:51.300Z,78.27
2022-08-05T01:04:20.189Z,77.23
2022-08-05T01:06:53.805Z,78.21
2022-08-05T01:09:22.793Z,78.04
2022-08-05T01:11:52.293Z,79.29
2022-08-05T01:14:36.544Z,78.32
2022-08-05T01:17:21.711Z,78.83
2022-08-05T01:20:03.843Z,77.80
2022-08-05T01:22:57.495Z,78.22
2022-08-05T01:25:41.543Z,79.22
2022-08-05T01:28:08.792Z,79.60
2022-08-05T01:30:40.132Z,79.38
2022-08-05T01:33:25.323Z,79.77
2022-08-05T01:35:57.474Z,81.06
2022-08-05T01:38:29.165Z,80.30
2022-08-05T01:40:59.915Z,82.09
2022-08-05T01:43:29.834Z,82.83
2022-08-05T01:46:07.533Z,82.85
2022-08-05T01:48:49.838Z,83.46
2022-08-05T01:51:18.856Z,84.39
2022-08-05T01:53:58.048Z,84.11
2022-08-05T01:58:11.959Z,85.48
2022-08-05T01:59:23.002Z,85.89
2022-08-05T02:01:54.820Z,85.38
2022-08-05T02:04:24.344Z,82.31
2022-08-05T02:06:52.849Z,84.02
2022-08-05T02:09:20.653Z,83.28
2022-08-05T02:12:12.611Z,82.55
2022-08-05T02:14:52.701Z,83.43
2022-08-05T02:18:27.482Z,83.93
2022-08-05T02:20:20.596Z,82.57
2022-08-05T02:22:51.908Z,83.24
2022-08-05T02:25:24.900Z,81.44
2022-08-05T02:27:58.516Z,82.40
2022-08-05T02:30:34.386Z,83.14
2022-08-05T02:33:03.855Z,82.75
2022-08-05T02:35:38.620Z,83.63
2022-08-05T02:38:19.322Z,83.82
2022-08-05T02:40:47.574Z,82.91
2022-08-05T02:43:16.967Z,83.01
2022-08-05T02:45:51.477Z,83.38
2022-08-05T02:48:29.015Z,83.67
2022-08-05T02:51:00.214Z,84.23
2022-08-05T02:53:39.148Z,84.18
2022-08-05T02:56:08.665Z,84.04
2022-08-05T02:58:37.275Z,82.68
2022-08-05T03:01:17.418Z,82.94
2022-08-05T03:04:02.836Z,83.92
2022-08-05T03:06:53.575Z,84.12
2022-08-05T03:09:36.569Z,83.99
2022-08-05T03:12:05.752Z,83.88
2022-08-05T03:14:32.763Z,84.17
2022-08-05T03:17:00.787Z,83.76
2022-08-05T03:19:34.148Z,83.97
2022-08-05T03:22:03.113Z,83.80
2022-08-05T03:24:32.104Z,84.17
2022-08-05T03:27:00.881Z,83.38
2022-08-05T03:29:45.733Z,83.81
2022-08-05T03:32:15.775Z,84.35
2022-08-05T03:34:50.633Z,85.28
2022-08-05T03:37:20.586Z,83.48
2022-08-05T03:40:01.158Z,83.37
2022-08-05T03:42:32.239Z,81.85
2022-08-05T03:45:01.778Z,81.92
2022-08-05T03:47:46.714Z,82.26
2022-08-05T03:50:16.184Z,82.27
2022-08-05T03:55:00.395Z,82.71
2022-08-05T03:56:27.802Z,81.03
2022-08-05T03:59:01.299Z,82.75
2022-08-05T04:01:32.131Z,81.52
2022-08-05T04:04:09.884Z,81.40
2022-08-05T04:06:47.555Z,82.26
2022-08-05T04:09:20.317Z,82.36
2022-08-05T04:11:53.469Z,82.87
2022-08-05T04:14:30.437Z,83.17
2022-08-05T04:17:00.211Z,83.28
2022-08-05T04:19:28.900Z,84.10
2022-08-05T04:22:09.009Z,83.77
2022-08-05T04:24:52.328Z,86.32
2022-08-05T04:27:41.967Z,86.21
2022-08-05T04:30:08.732Z,87.64
2022-08-05T04:32:35.945Z,88.49
2022-08-05T04:35:04.687Z,88.65
2022-08-05T04:38:02.371Z,88.04
2022-08-05T04:40:19.926Z,87.99
2022-08-05T04:42:46.873Z,89.83
2022-08-05T04:45:14.171Z,89.41
2022-08-05T04:47:49.857Z,89.87
2022-08-05T04:50:37.564Z,91.36
2022-08-05T04:53:04.656Z,91.75
2022-08-05T04:56:14.274Z,91.42
2022-08-05T04:58:21.504Z,92.04
2022-08-05T05:00:50.644Z,91.42
2022-08-05T05:03:18.825Z,93.07
2022-08-05T05:06:36.516Z,93.11
2022-08-05T05:08:36.866Z,93.17
2022-08-05T05:11:10.680Z,92.44
2022-08-05T05:13:43.369Z,93.22
2022-08-05T05:16:10.648Z,93.32
2022-08-05T05:18:38.567Z,94.55
2022-08-05T05:21:05.718Z,94.64
2022-08-05T05:24:02.078Z,93.78
2022-08-05T05:26:28.752Z,94.00
2022-08-05T05:28:59.863Z,92.12
2022-08-05T05:31:26.720Z,92.07
2022-08-05T05:33:59.294Z,92.18
2022-08-05T05:36:28.759Z,91.04
2022-08-05T05:38:57.412Z,91.52
2022-08-05T05:41:24.534Z,90.57
2022-08-05T05:43:56.892Z,90.29
2022-08-05T05:46:26.827Z,90.28
2022-08-05T05:48:53.619Z,89.46
2022-08-05T05:51:25.666Z,88.28
2022-08-05T05:53:57.284Z,88.27
2022-08-05T05:56:32.618Z,87.55
2022-08-05T05:59:06.720Z,87.40
2022-08-05T06:01:38.961Z,86.73
2022-08-05T06:04:12.739Z,85.01
2022-08-05T06:06:47.688Z,84.29
2022-08-05T06:09:35.377Z,83.26
2022-08-05T06:12:04.284Z,82.50
2022-08-05T06:14:31.787Z,82.83
2022-08-05T06:17:02.150Z,82.70
2022-08-05T06:19:56.542Z,81.49
2022-08-05T06:22:33.911Z,80.86
2022-08-05T06:25:59.251Z,80.08
2022-08-05T06:28:09.002Z,80.64
2022-08-05T06:30:37.370Z,79.52
2022-08-05T06:33:04.188Z,78.75
2022-08-05T06:36:03.685Z,78.68
2022-08-05T06:38:17.839Z,77.27
2022-08-05T06:41:03.734Z,76.65
2022-08-05T06:43:58.000Z,76.10
2022-08-05T06:46:18.505Z,76.05
2022-08-05T06:48:56.455Z,75.02
2022-08-05T06:51:29.744Z,74.77
2022-08-05T06:54:02.017Z,74.74
2022-08-05T06:56:29.890Z,73.81
2022-08-05T06:59:00.290Z,73.45
2022-08-05T07:01:32.195Z,72.62
2022-08-05T07:04:02.309Z,71.71
2022-08-05T07:06:29.568Z,71.82
2022-08-05T07:08:56.468Z,71.43
2022-08-05T07:11:28.078Z,71.19
2022-08-05T07:14:20.657Z,70.88
2022-08-05T07:17:59.946Z,69.92
2022-08-05T07:22:42.123Z,70.14
2022-08-05T07:25:54.153Z,69.77
2022-08-05T07:28:02.709Z,67.97
2022-08-05T07:30:34.761Z,68.72
2022-08-05T07:33:09.900Z,68.22
2022-08-05T07:36:02.115Z,68.02
2022-08-05T07:38:33.932Z,68.13
2022-08-05T07:42:08.709Z,67.41
2022-08-05T07:43:58.514Z,67.45
2022-08-05T07:46:30.829Z,66.71
2022-08-05T07:49:05.018Z,65.70
2022-08-05T07:51:36.610Z,64.95
2022-08-05T07:54:08.446Z,64.81
2022-08-05T07:56:39.382Z,65.06
2022-08-05T07:59:39.117Z,63.70
2022-08-05T08:02:16.985Z,63.71
2022-08-05T08:04:48.184Z,63.67
2022-08-05T08:07:17.975Z,63.62
2022-08-05T08:09:49.591Z,62.41
2022-08-05T08:12:33.507Z,62.05
2022-08-05T08:15:09.737Z,62.34
2022-08-05T08:17:46.140Z,61.43
2022-08-05T08:20:42.834Z,61.77
2022-08-05T08:24:00.104Z,59.89
2022-08-05T08:26:00.952Z,60.22
2022-08-05T08:28:36.259Z,59.63
2022-08-05T08:31:08.445Z,60.11
2022-08-05T08:33:37.994Z,59.99
2022-08-05T08:36:40.183Z,61.01
2022-08-05T08:38:55.790Z,59.51
2022-08-05T08:41:26.279Z,60.15
2022-08-05T08:45:18.646Z,58.63
2022-08-05T08:47:47.179Z,57.75
2022-08-05T08:50:22.300Z,57.84
2022-08-05T08:52:42.717Z,57.58
2022-08-05T08:55:19.488Z,57.73
2022-08-05T08:58:02.174Z,58.69
2022-08-05T09:00:30.735Z,57.10
2022-08-05T09:02:58.526Z,56.72
2022-08-05T09:05:38.664Z,56.78
2022-08-05T09:08:13.088Z,57.08
2022-08-05T09:10:43.488Z,57.86
2022-08-05T09:13:15.695Z,56.09
2022-08-05T09:15:42.999Z,54.94
2022-08-05T09:18:13.362Z,55.58
2022-08-05T09:20:42.071Z,55.45
2022-08-05T09:23:18.677Z,55.29
2022-08-05T09:26:02.518Z,55.86
2022-08-05T09:28:33.857Z,55.82
2022-08-05T09:31:22.522Z,55.42
2022-08-05T09:34:01.588Z,54.33
2022-08-05T09:36:55.228Z,54.73
2022-08-05T09:39:39.507Z,53.07
2022-08-05T09:42:23.391Z,53.24
2022-08-05T09:44:56.734Z,53.90
2022-08-05T09:47:48.041Z,53.48
2022-08-05T09:50:18.144Z,53.45
2022-08-05T09:53:01.366Z,54.24
2022-08-05T09:55:57.872Z,53.18
2022-08-05T09:58:22.921Z,53.57
2022-08-05T10:01:01.247Z,54.33
2022-08-05T10:03:38.761Z,53.83
2022-08-05T10:06:20.624Z,54.67
2022-08-05T10:08:50.337Z,53.88
2022-08-05T10:11:21.044Z,53.12
2022-08-05T10:13:49.350Z,52.79
2022-08-05T10:16:32.124Z,52.94
2022-08-05T10:19:08.565Z,51.19
2022-08-05T10:21:40.507Z,51.31
2022-08-05T10:24:13.521Z,52.02
2022-08-05T10:26:48.977Z,49.84
2022-08-05T10:29:23.440Z,50.17
2022-08-05T10:32:54.989Z,50.73
2022-08-05T10:34:37.866Z,51.11
2022-08-05T10:37:08.329Z,50.73
2022-08-05T10:39:59.417Z,49.60
2022-08-05T10:42:32.565Z,50.61
2022-08-05T10:45:02.099Z,50.23
2022-08-05T10:48:31.892Z,50.17
2022-08-05T10:51:00.900Z,49.66
2022-08-05T10:53:38.410Z,48.38
2022-08-05T10:56:25.313Z,48.56
2022-08-05T10:58:55.843Z,49.78
2022-08-05T11:01:55.438Z,49.53
2022-08-05T11:04:23.459Z,50.05
2022-08-05T11:07:01.856Z,49.75
2022-08-05T11:09:45.486Z,49.72
2022-08-05T11:12:43.847Z,49.40
2022-08-05T11:16:00.894Z,49.27
2022-08-05T11:18:34.680Z,49.05
2022-08-05T11:21:11.609Z,48.97
2022-08-05T11:24:04.503Z,48.95
2022-08-05T11:26:43.402Z,49.02
2022-08-05T11:29:38.311Z,48.50
2022-08-05T11:32:30.534Z,47.78
2022-08-05T11:34:57.783Z,47.51
2022-08-05T11:38:28.238Z,47.21
2022-08-05T11:41:34.591Z,49.80
2022-08-05T11:44:11.066Z,48.34
2022-08-05T11:47:09.937Z,47.72
2022-08-05T11:49:36.535Z,48.97
2022-08-05T11:52:08.405Z,49.19
2022-08-05T11:54:40.678Z,47.49
2022-08-05T11:57:25.041Z,46.65
2022-08-05T11:59:55.571Z,44.22
2022-08-05T12:02:33.420Z,45.69
2022-08-05T12:05:07.067Z,45.76
2022-08-05T12:08:07.310Z,45.79
2022-08-05T12:10:38.638Z,44.82
2022-08-05T12:13:15.482Z,45.67
2022-08-05T12:15:49.709Z,46.75
2022-08-05T12:18:32.843Z,47.29
2022-08-05T12:21:31.849Z,45.93
2022-08-05T12:24:07.248Z,45.10
2022-08-05T12:26:43.820Z,44.57
2022-08-05T12:29:22.794Z,45.04
2022-08-05T12:31:53.752Z,45.43
2022-08-05T12:34:26.861Z,47.63
2022-08-05T12:36:56.418Z,44.81
2022-08-05T12:39:34.523Z,45.44
2022-08-05T12:42:14.908Z,46.30
2022-08-05T12:44:44.673Z,46.43
2022-08-05T12:47:13.784Z,47.41
2022-08-05T12:50:03.165Z,47.16
2022-08-05T12:52:41.841Z,45.84
2022-08-05T12:55:23.932Z,45.87
2022-08-05T12:58:48.830Z,44.11
2022-08-05T13:02:02.360Z,43.79
2022-08-05T13:03:33.021Z,43.07
2022-08-05T13:06:01.866Z,44.41
2022-08-05T13:08:30.335Z,42.95
2022-08-05T13:11:04.189Z,44.08
2022-08-05T13:14:05.545Z,44.54
2022-08-05T13:16:20.339Z,43.37
2022-08-05T13:18:58.351Z,45.10
2022-08-05T13:21:28.497Z,44.14
2022-08-05T13:24:09.379Z,44.26
2022-08-05T13:26:40.289Z,44.85
2022-08-05T13:29:07.907Z,44.27
2022-08-05T13:32:04.047Z,44.36
2022-08-05T13:34:26.082Z,44.33
2022-08-05T13:36:54.352Z,45.32
2022-08-05T13:39:24.757Z,46.42
2022-08-05T13:42:14.364Z,46.72
2022-08-05T13:44:45.682Z,46.14
2022-08-05T13:47:35.625Z,46.27
2022-08-05T13:50:04.469Z,45.66
2022-08-05T13:52:35.547Z,45.43
2022-08-05T13:55:08.036Z,45.93
2022-08-05T13:57:50.592Z,45.51
2022-08-05T14:00:27.633Z,45.98
2022-08-05T14:02:56.637Z,46.04
2022-08-05T14:05:48.518Z,44.58
2022-08-05T14:08:21.253Z,44.32
2022-08-05T14:11:03.287Z,45.45
2022-08-05T14:13:48.144Z,45.89
2022-08-05T14:16:17.192Z,46.73
2022-08-05T14:18:47.580Z,46.13
2022-08-05T14:22:07.690Z,46.26
2022-08-05T14:24:02.431Z,45.33
2022-08-05T14:26:38.675Z,46.21
2022-08-05T14:29:16.324Z,44.66
2022-08-05T14:32:03.672Z,46.76
2022-08-05T14:34:35.315Z,50.09
2022-08-05T14:37:04.370Z,50.65
2022-08-05T14:39:49.679Z,50.90
2022-08-05T14:42:20.627Z,51.67
2022-08-05T14:44:56.824Z,51.61
2022-08-05T14:48:02.840Z,52.36
2022-08-05T14:50:19.693Z,52.74
2022-08-05T14:52:56.844Z,52.04
2022-08-05T14:55:38.768Z,49.22
2022-08-05T14:58:11.358Z,48.81
2022-08-05T15:00:58.722Z,47.27
2022-08-05T15:03:33.788Z,47.53
2022-08-05T15:06:13.490Z,47.74
2022-08-05T15:09:01.072Z,45.97
2022-08-05T15:11:51.127Z,46.22
2022-08-05T15:14:33.979Z,47.55
2022-08-05T15:17:05.014Z,49.05
2022-08-05T15:19:40.138Z,50.73
2022-08-05T15:22:16.121Z,51.59
2022-08-05T15:24:48.593Z,52.90
2022-08-05T15:27:17.284Z,52.61
2022-08-05T15:29:52.604Z,52.14
2022-08-05T15:32:21.313Z,52.05
2022-08-05T15:34:55.877Z,52.02
2022-08-05T15:38:34.667Z,51.58
2022-08-05T15:41:01.026Z,50.94
2022-08-05T15:43:08.008Z,51.00
2022-08-05T15:45:45.542Z,50.95
2022-08-05T15:48:14.284Z,50.30
2022-08-05T15:50:43.860Z,50.11
2022-08-05T15:53:13.209Z,49.94
2022-08-05T15:56:03.166Z,49.92
2022-08-05T15:58:36.891Z,50.16
2022-08-05T16:01:16.060Z,50.32
2022-08-05T16:03:48.506Z,50.96
2022-08-05T16:06:20.931Z,51.84
2022-08-05T16:08:55.319Z,51.59
2022-08-05T16:11:42.984Z,52.68
2022-08-05T16:14:09.566Z,52.89
2022-08-05T16:16:36.804Z,52.16
2022-08-05T16:19:04.162Z,52.27
2022-08-05T16:22:00.777Z,52.24
2022-08-05T16:24:39.986Z,52.04
2022-08-05T16:27:07.329Z,51.41
2022-08-05T16:29:37.237Z,51.54
2022-08-05T16:32:09.559Z,51.81
2022-08-05T16:34:42.550Z,53.03
2022-08-05T16:38:03.236Z,53.95
2022-08-05T16:40:06.295Z,53.96
2022-08-05T16:42:35.760Z,53.13
2022-08-05T16:45:06.217Z,52.47
2022-08-05T16:47:54.425Z,52.19
2022-08-05T16:50:24.427Z,52.05
2022-08-05T16:52:51.474Z,51.01
2022-08-05T16:55:20.468Z,50.75
2022-08-05T16:58:00.109Z,50.67
2022-08-05T17:00:34.961Z,50.36
2022-08-05T17:03:03.701Z,51.20
2022-08-05T17:05:36.959Z,51.16
2022-08-05T17:08:04.705Z,51.18
2022-08-05T17:10:31.578Z,51.92
2022-08-05T17:12:58.449Z,51.86
2022-08-05T17:15:29.481Z,52.04
2022-08-05T17:18:14.132Z,51.75
2022-08-05T17:20:42.218Z,51.69
2022-08-05T17:24:03.609Z,50.66
2022-08-05T17:25:58.848Z,51.11
2022-08-05T17:28:25.964Z,50.34
2022-08-05T17:30:57.679Z,51.00
2022-08-05T17:33:26.862Z,50.58
2022-08-05T17:36:31.674Z,51.13
2022-08-05T17:38:54.155Z,50.42
2022-08-05T17:42:20.088Z,49.92
2022-08-05T17:44:11.248Z,49.87
2022-08-05T17:46:38.296Z,49.42
2022-08-05T17:49:05.443Z,47.68
2022-08-05T17:51:40.583Z,47.71
2022-08-05T17:54:08.411Z,46.65
2022-08-05T17:56:36.790Z,45.46
2022-08-05T17:59:04.644Z,45.01
2022-08-05T18:01:49.213Z,45.61
2022-08-05T18:04:21.487Z,46.00
2022-08-05T18:06:55.164Z,46.82
2022-08-05T18:09:28.448Z,47.69
2022-08-05T18:12:22.183Z,47.55
2022-08-05T18:14:51.763Z,46.79
2022-08-05T18:18:01.035Z,47.37
2022-08-05T18:20:13.892Z,47.86
2022-08-05T18:22:54.643Z,48.02
2022-08-05T18:25:25.161Z,48.99
2022-08-05T18:27:59.492Z,50.20
2022-08-05T18:30:32.452Z,50.61
2022-08-05T18:33:00.168Z,50.23
2022-08-05T18:36:01.294Z,49.84
2022-08-05T18:38:16.464Z,49.59
2022-08-05T18:41:56.228Z,50.21
2022-08-05T18:43:38.146Z,50.14
2022-08-05T18:46:10.826Z,49.92
2022-08-05T18:48:41.875Z,49.52
2022-08-05T18:52:06.203Z,49.67
2022-08-05T18:54:15.860Z,50.07
2022-08-05T18:56:51.023Z,50.66
2022-08-05T18:59:44.143Z,50.94
2022-08-05T19:02:26.991Z,51.17
2022-08-05T19:05:02.291Z,51.25
2022-08-05T19:07:46.275Z,51.48
2022-08-05T19:10:18.750Z,51.94
2022-08-05T19:12:53.669Z,52.73
2022-08-05T19:15:57.696Z,52.29
2022-08-05T19:18:09.343Z,52.62
2022-08-05T19:20:41.361Z,52.36
2022-08-05T19:24:03.588Z,52.51
2022-08-05T19:26:01.786Z,51.46
2022-08-05T19:28:33.098Z,51.98
2022-08-05T19:31:00.423Z,52.42
2022-08-05T19:33:35.483Z,53.07
2022-08-05T19:36:09.014Z,53.22
2022-08-05T19:38:36.679Z,54.06
2022-08-05T19:41:07.237Z,54.86
2022-08-05T19:44:06.429Z,54.98
2022-08-05T19:46:29.815Z,55.75
2022-08-05T19:49:03.048Z,56.51
2022-08-05T19:51:59.850Z,56.83
2022-08-05T19:54:25.564Z,57.35
2022-08-05T19:57:02.388Z,57.15
2022-08-05T19:59:54.891Z,57.49
2022-08-05T20:02:18.961Z,58.43
2022-08-05T20:04:48.375Z,58.31
2022-08-05T20:07:46.772Z,58.18
2022-08-05T20:10:13.626Z,58.61
2022-08-05T20:12:45.957Z,58.74
2022-08-05T20:15:23.454Z,59.55
2022-08-05T20:18:10.320Z,59.98
2022-08-05T20:20:56.501Z,59.84
2022-08-05T20:23:40.502Z,59.80
2022-08-05T20:26:16.097Z,60.21
2022-08-05T20:28:48.890Z,60.73
2022-08-05T20:31:21.949Z,60.47
2022-08-05T20:33:55.509Z,60.31
2022-08-05T20:36:24.292Z,60.27
2022-08-05T20:38:53.794Z,60.73
2022-08-05T20:41:24.204Z,62.01
2022-08-05T20:43:58.744Z,60.56
2022-08-05T20:46:30.084Z,61.22
2022-08-05T20:48:57.143Z,60.76
2022-08-05T20:51:24.094Z,62.23
2022-08-05T20:53:56.460Z,61.20
2022-08-05T20:56:29.742Z,61.50
2022-08-05T20:59:00.042Z,61.41
2022-08-05T21:01:39.028Z,61.97
2022-08-05T21:04:10.873Z,61.91
2022-08-05T21:06:45.385Z,62.03
2022-08-05T21:09:15.549Z,62.24
2022-08-05T21:12:07.034Z,62.43
2022-08-05T21:14:34.608Z,62.97
2022-08-05T21:17:04.965Z,63.99
2022-08-05T21:19:46.611Z,64.15
2022-08-05T21:22:18.631Z,64.79
2022-08-05T21:24:51.853Z,65.69
2022-08-05T21:27:25.306Z,65.23
2022-08-05T21:29:56.504Z,65.77
2022-08-05T21:32:26.834Z,65.15
2022-08-05T21:35:17.526Z,64.73
2022-08-05T21:37:47.118Z,65.21
2022-08-05T21:40:14.724Z,65.43
2022-08-05T21:42:44.820Z,65.18
2022-08-05T21:45:17.657Z,65.31
2022-08-05T21:47:56.649Z,65.50
2022-08-05T21:50:26.455Z,64.74
2022-08-05T21:52:58.778Z,64.73
2022-08-05T21:56:00.842Z,65.48
2022-08-05T21:58:12.975Z,66.56
2022-08-05T22:00:40.175Z,68.44
2022-08-05T22:03:07.441Z,67.88
2022-08-05T22:05:48.538Z,69.01
2022-08-05T22:08:22.141Z,68.78
2022-08-05T22:10:51.834Z,68.46
2022-08-05T22:14:34.386Z,68.46
2022-08-05T22:16:32.310Z,68.42
2022-08-05T22:18:54.060Z,69.04
2022-08-05T22:21:25.752Z,68.52
2022-08-05T22:24:13.210Z,67.79
2022-08-05T22:27:17.370Z,69.46
2022-08-05T22:29:44.390Z,69.84
2022-08-05T22:32:17.481Z,68.72
2022-08-05T22:34:44.552Z,68.39
2022-08-05T22:37:13.304Z,67.58
2022-08-05T22:39:40.400Z,68.57
2022-08-05T22:42:12.361Z,67.30
2022-08-05T22:44:53.742Z,66.77
2022-08-05T22:47:29.423Z,66.36
2022-08-05T22:50:20.885Z,66.88
2022-08-05T22:52:44.138Z,66.41
2022-08-05T22:55:18.905Z,67.91
2022-08-05T22:57:48.977Z,69.25
2022-08-05T23:00:17.858Z,67.78
2022-08-05T23:02:48.305Z,67.50
2022-08-05T23:05:16.271Z,67.81
2022-08-05T23:07:44.770Z,67.84
2022-08-05T23:10:15.097Z,69.04
2022-08-05T23:12:43.918Z,68.94
2022-08-05T23:15:11.920Z,68.92
2022-08-05T23:18:02.348Z,69.88
2022-08-05T23:20:25.816Z,70.47
2022-08-05T23:22:55.838Z,68.76
2022-08-05T23:25:54.697Z,70.31
2022-08-05T23:28:11.188Z,70.37
2022-08-05T23:30:43.472Z,70.25
2022-08-05T23:33:22.140Z,70.88
2022-08-05T23:35:55.969Z,72.99
2022-08-05T23:38:26.964Z,74.04
2022-08-05T23:40:53.989Z,74.03
2022-08-05T23:43:25.206Z,76.02
2022-08-05T23:46:05.182Z,76.50
2022-08-05T23:48:59.710Z,75.95
2022-08-05T23:51:53.926Z,74.69
2022-08-05T23:54:34.265Z,75.90
2022-08-05T23:57:05.786Z,76.57
